sensor_id;sensor_type;location;lat;lon;timestamp;temperature;humidity
26037;DHT22;13810;48.376;10.944;2022-08-19T00:00:16;18.90;99.90
26037;DHT22;13810;48.376;10.944;2022-08-19T00:00:47;18.90;99.90
26037;DHT22;13810;48.376;10.944;2022-08-19T00:01:17;19.00;99.90
26037;DHT22;13810;48.376;10.944;2022-08-19T00:01:51;19.00;99.90
26037;DHT22;13810;48.376;10.944;2022-08-19T00:02:22;18.90;99.90
26037;DHT22;13810;48.376;10.944;2022-08-19T00:02:53;18.90;99.90
26037;DHT22;13810;48.376;10.944;2022-08-19T00:03:24;18.90;99.90
26037;DHT22;13810;48.376;10.944;2022-08-19T00:03:57;18.90;99.90
26037;DHT22;13810;48.376;10.944;2022-08-19T00:04:31;18.90;99.90
26037;DHT22;13810;48.376;10.944;2022-08-19T00:05:03;18.90;99.90
26037;DHT22;13810;48.376;10.944;2022-08-19T00:05:34;18.90;99.90
26037;DHT22;13810;48.376;10.944;2022-08-19T00:06:05;18.90;99.90
26037;DHT22;13810;48.376;10.944;2022-08-19T00:06:37;18.90;99.90
26037;DHT22;13810;48.376;10.944;2022-08-19T00:07:08;18.90;99.90
26037;DHT22;13810;48.376;10.944;2022-08-19T00:07:39;18.90;99.90
26037;DHT22;13810;48.376;10.944;2022-08-19T00:08:11;18.90;99.90
26037;DHT22;13810;48.376;10.944;2022-08-19T00:08:42;18.90;99.90
26037;DHT22;13810;48.376;10.944;2022-08-19T00:09:15;18.90;99.90
26037;DHT22;13810;48.376;10.944;2022-08-19T00:09:46;18.90;99.90
26037;DHT22;13810;48.376;10.944;2022-08-19T00:10:17;18.90;99.90
26037;DHT22;13810;48.376;10.944;2022-08-19T00:10:48;18.90;99.90
26037;DHT22;13810;48.376;10.944;2022-08-19T00:11:19;18.90;99.90
26037;DHT22;13810;48.376;10.944;2022-08-19T00:11:51;18.90;99.90
26037;DHT22;13810;48.376;10.944;2022-08-19T00:12:22;18.90;99.90
26037;DHT22;13810;48.376;10.944;2022-08-19T00:12:53;18.90;99.90
26037;DHT22;13810;48.376;10.944;2022-08-19T00:13:23;18.90;99.90
26037;DHT22;13810;48.376;10.944;2022-08-19T00:13:55;18.90;99.90
26037;DHT22;13810;48.376;10.944;2022-08-19T00:14:27;18.90;99.90
26037;DHT22;13810;48.376;10.944;2022-08-19T00:15:02;18.90;99.90
26037;DHT22;13810;48.376;10.944;2022-08-19T00:15:33;18.90;99.90
26037;DHT22;13810;48.376;10.944;2022-08-19T00:16:06;18.90;99.90
26037;DHT22;13810;48.376;10.944;2022-08-19T00:16:38;18.90;99.90
26037;DHT22;13810;48.376;10.944;2022-08-19T00:17:09;18.90;99.90
26037;DHT22;13810;48.376;10.944;2022-08-19T00:17:42;18.90;99.90
26037;DHT22;13810;48.376;10.944;2022-08-19T00:18:13;18.90;99.90
26037;DHT22;13810;48.376;10.944;2022-08-19T00:18:44;18.90;99.90
26037;DHT22;13810;48.376;10.944;2022-08-19T00:19:15;18.90;99.90
26037;DHT22;13810;48.376;10.944;2022-08-19T00:19:46;18.90;99.90
26037;DHT22;13810;48.376;10.944;2022-08-19T00:20:19;18.90;99.90
26037;DHT22;13810;48.376;10.944;2022-08-19T00:20:50;18.90;99.90
26037;DHT22;13810;48.376;10.944;2022-08-19T00:21:25;18.90;99.90
26037;DHT22;13810;48.376;10.944;2022-08-19T00:21:57;18.90;99.90
26037;DHT22;13810;48.376;10.944;2022-08-19T00:22:27;18.90;99.90
26037;DHT22;13810;48.376;10.944;2022-08-19T00:23:04;18.90;99.90
26037;DHT22;13810;48.376;10.944;2022-08-19T00:23:35;18.90;99.90
26037;DHT22;13810;48.376;10.944;2022-08-19T00:24:08;19.00;99.90
26037;DHT22;13810;48.376;10.944;2022-08-19T00:24:39;19.00;99.90
26037;DHT22;13810;48.376;10.944;2022-08-19T00:25:11;18.90;99.90
26037;DHT22;13810;48.376;10.944;2022-08-19T00:25:42;19.00;99.90
26037;DHT22;13810;48.376;10.944;2022-08-19T00:26:13;18.90;99.90
26037;DHT22;13810;48.376;10.944;2022-08-19T00:26:45;18.90;99.90
26037;DHT22;13810;48.376;10.944;2022-08-19T00:27:15;18.90;99.90
26037;DHT22;13810;48.376;10.944;2022-08-19T00:27:46;18.90;99.90
26037;DHT22;13810;48.376;10.944;2022-08-19T00:28:18;18.90;99.90
26037;DHT22;13810;48.376;10.944;2022-08-19T00:28:49;18.90;99.90
26037;DHT22;13810;48.376;10.944;2022-08-19T00:29:21;18.90;99.90
26037;DHT22;13810;48.376;10.944;2022-08-19T00:29:51;18.90;99.90
26037;DHT22;13810;48.376;10.944;2022-08-19T00:30:22;18.90;99.90
26037;DHT22;13810;48.376;10.944;2022-08-19T00:30:53;19.00;99.90
26037;DHT22;13810;48.376;10.944;2022-08-19T00:31:23;19.00;99.90
26037;DHT22;13810;48.376;10.944;2022-08-19T00:31:55;19.00;99.90
26037;DHT22;13810;48.376;10.944;2022-08-19T00:32:28;19.00;99.90
26037;DHT22;13810;48.376;10.944;2022-08-19T00:32:59;19.00;99.90
26037;DHT22;13810;48.376;10.944;2022-08-19T00:33:31;18.90;99.90
26037;DHT22;13810;48.376;10.944;2022-08-19T00:34:04;18.90;99.90
26037;DHT22;13810;48.376;10.944;2022-08-19T00:34:35;19.00;99.90
26037;DHT22;13810;48.376;10.944;2022-08-19T00:35:06;19.00;99.90
26037;DHT22;13810;48.376;10.944;2022-08-19T00:35:37;18.90;99.90
26037;DHT22;13810;48.376;10.944;2022-08-19T00:36:09;19.00;99.90
26037;DHT22;13810;48.376;10.944;2022-08-19T00:36:42;19.00;99.90
26037;DHT22;13810;48.376;10.944;2022-08-19T00:37:13;19.00;99.90
26037;DHT22;13810;48.376;10.944;2022-08-19T00:37:43;19.00;99.90
26037;DHT22;13810;48.376;10.944;2022-08-19T00:38:15;18.90;99.90
26037;DHT22;13810;48.376;10.944;2022-08-19T00:38:45;18.90;99.90
26037;DHT22;13810;48.376;10.944;2022-08-19T00:39:16;19.00;99.90
26037;DHT22;13810;48.376;10.944;2022-08-19T00:39:47;18.90;99.90
26037;DHT22;13810;48.376;10.944;2022-08-19T00:40:18;18.90;99.90
26037;DHT22;13810;48.376;10.944;2022-08-19T00:40:49;18.90;99.90
26037;DHT22;13810;48.376;10.944;2022-08-19T00:41:23;18.90;99.90
26037;DHT22;13810;48.376;10.944;2022-08-19T00:41:53;18.90;99.90
26037;DHT22;13810;48.376;10.944;2022-08-19T00:42:25;18.90;99.90
26037;DHT22;13810;48.376;10.944;2022-08-19T00:42:59;18.90;99.90
26037;DHT22;13810;48.376;10.944;2022-08-19T00:43:29;18.90;99.90
26037;DHT22;13810;48.376;10.944;2022-08-19T00:44:38;18.90;99.90
26037;DHT22;13810;48.376;10.944;2022-08-19T00:45:16;18.90;99.90
26037;DHT22;13810;48.376;10.944;2022-08-19T00:45:47;18.90;99.90
26037;DHT22;13810;48.376;10.944;2022-08-19T00:46:18;18.90;99.90
26037;DHT22;13810;48.376;10.944;2022-08-19T00:46:52;18.90;99.90
26037;DHT22;13810;48.376;10.944;2022-08-19T00:47:23;18.90;99.90
26037;DHT22;13810;48.376;10.944;2022-08-19T00:47:53;18.90;99.90
26037;DHT22;13810;48.376;10.944;2022-08-19T00:48:24;18.90;99.90
26037;DHT22;13810;48.376;10.944;2022-08-19T00:48:56;18.90;99.90
26037;DHT22;13810;48.376;10.944;2022-08-19T00:49:50;18.90;99.90
26037;DHT22;13810;48.376;10.944;2022-08-19T00:50:21;18.90;99.90
26037;DHT22;13810;48.376;10.944;2022-08-19T00:50:53;18.90;99.90
26037;DHT22;13810;48.376;10.944;2022-08-19T00:51:27;18.90;99.90
26037;DHT22;13810;48.376;10.944;2022-08-19T00:52:06;18.90;99.90
26037;DHT22;13810;48.376;10.944;2022-08-19T00:52:42;18.90;99.90
26037;DHT22;13810;48.376;10.944;2022-08-19T00:53:17;18.90;99.90
26037;DHT22;13810;48.376;10.944;2022-08-19T00:53:49;18.90;99.90
26037;DHT22;13810;48.376;10.944;2022-08-19T00:54:21;18.90;99.90
26037;DHT22;13810;48.376;10.944;2022-08-19T00:54:52;18.90;99.90
26037;DHT22;13810;48.376;10.944;2022-08-19T00:55:25;18.90;99.90
26037;DHT22;13810;48.376;10.944;2022-08-19T00:56:00;18.90;99.90
26037;DHT22;13810;48.376;10.944;2022-08-19T00:56:31;18.90;99.90
26037;DHT22;13810;48.376;10.944;2022-08-19T00:57:05;18.90;99.90
26037;DHT22;13810;48.376;10.944;2022-08-19T00:57:40;18.80;99.90
26037;DHT22;13810;48.376;10.944;2022-08-19T00:58:14;18.80;99.90
26037;DHT22;13810;48.376;10.944;2022-08-19T00:58:45;18.80;99.90
26037;DHT22;13810;48.376;10.944;2022-08-19T00:59:18;18.80;99.90
26037;DHT22;13810;48.376;10.944;2022-08-19T00:59:52;18.80;99.90
26037;DHT22;13810;48.376;10.944;2022-08-19T01:00:26;18.80;99.90
26037;DHT22;13810;48.376;10.944;2022-08-19T01:00:57;18.80;99.90
26037;DHT22;13810;48.376;10.944;2022-08-19T01:01:28;18.80;99.90
26037;DHT22;13810;48.376;10.944;2022-08-19T01:01:59;18.80;99.90
26037;DHT22;13810;48.376;10.944;2022-08-19T01:02:31;18.80;99.90
26037;DHT22;13810;48.376;10.944;2022-08-19T01:03:09;18.80;99.90
26037;DHT22;13810;48.376;10.944;2022-08-19T01:03:40;18.80;99.90
26037;DHT22;13810;48.376;10.944;2022-08-19T01:04:10;18.80;99.90
26037;DHT22;13810;48.376;10.944;2022-08-19T01:04:41;18.80;99.90
26037;DHT22;13810;48.376;10.944;2022-08-19T01:05:15;18.80;99.90
26037;DHT22;13810;48.376;10.944;2022-08-19T01:05:49;18.90;99.90
26037;DHT22;13810;48.376;10.944;2022-08-19T01:06:21;18.80;99.90
26037;DHT22;13810;48.376;10.944;2022-08-19T01:06:51;18.80;99.90
26037;DHT22;13810;48.376;10.944;2022-08-19T01:07:22;18.90;99.90
26037;DHT22;13810;48.376;10.944;2022-08-19T01:07:54;18.90;99.90
26037;DHT22;13810;48.376;10.944;2022-08-19T01:08:25;18.90;99.90
26037;DHT22;13810;48.376;10.944;2022-08-19T01:08:56;18.90;99.90
26037;DHT22;13810;48.376;10.944;2022-08-19T01:09:27;18.90;99.90
26037;DHT22;13810;48.376;10.944;2022-08-19T01:09:57;18.80;99.90
26037;DHT22;13810;48.376;10.944;2022-08-19T01:10:31;18.80;99.90
26037;DHT22;13810;48.376;10.944;2022-08-19T01:11:02;18.80;99.90
26037;DHT22;13810;48.376;10.944;2022-08-19T01:11:36;18.80;99.90
26037;DHT22;13810;48.376;10.944;2022-08-19T01:12:08;18.80;99.90
26037;DHT22;13810;48.376;10.944;2022-08-19T01:12:39;18.80;99.90
26037;DHT22;13810;48.376;10.944;2022-08-19T01:13:11;18.80;99.90
26037;DHT22;13810;48.376;10.944;2022-08-19T01:13:45;18.80;99.90
26037;DHT22;13810;48.376;10.944;2022-08-19T01:14:16;18.80;99.90
26037;DHT22;13810;48.376;10.944;2022-08-19T01:14:47;18.80;99.90
26037;DHT22;13810;48.376;10.944;2022-08-19T01:15:22;18.80;99.90
26037;DHT22;13810;48.376;10.944;2022-08-19T01:15:58;18.80;99.90
26037;DHT22;13810;48.376;10.944;2022-08-19T01:16:31;18.80;99.90
26037;DHT22;13810;48.376;10.944;2022-08-19T01:17:02;18.70;99.90
26037;DHT22;13810;48.376;10.944;2022-08-19T01:17:35;18.80;99.90
26037;DHT22;13810;48.376;10.944;2022-08-19T01:18:10;18.70;99.90
26037;DHT22;13810;48.376;10.944;2022-08-19T01:18:42;18.70;99.90
26037;DHT22;13810;48.376;10.944;2022-08-19T01:19:21;18.70;99.90
26037;DHT22;13810;48.376;10.944;2022-08-19T01:19:55;18.70;99.90
26037;DHT22;13810;48.376;10.944;2022-08-19T01:20:26;18.70;99.90
26037;DHT22;13810;48.376;10.944;2022-08-19T01:21:03;18.70;99.90
26037;DHT22;13810;48.376;10.944;2022-08-19T01:21:43;18.70;99.90
26037;DHT22;13810;48.376;10.944;2022-08-19T01:22:56;18.70;99.90
26037;DHT22;13810;48.376;10.944;2022-08-19T01:23:27;18.70;99.90
26037;DHT22;13810;48.376;10.944;2022-08-19T01:24:12;18.70;99.90
26037;DHT22;13810;48.376;10.944;2022-08-19T01:24:43;18.70;99.90
26037;DHT22;13810;48.376;10.944;2022-08-19T01:25:19;18.70;99.90
26037;DHT22;13810;48.376;10.944;2022-08-19T01:25:52;18.70;99.90
26037;DHT22;13810;48.376;10.944;2022-08-19T01:26:24;18.70;99.90
26037;DHT22;13810;48.376;10.944;2022-08-19T01:26:56;18.70;99.90
26037;DHT22;13810;48.376;10.944;2022-08-19T01:27:27;18.70;99.90
26037;DHT22;13810;48.376;10.944;2022-08-19T01:27:57;18.70;99.90
26037;DHT22;13810;48.376;10.944;2022-08-19T01:28:28;18.70;99.90
26037;DHT22;13810;48.376;10.944;2022-08-19T01:28:59;18.70;99.90
26037;DHT22;13810;48.376;10.944;2022-08-19T01:29:31;18.70;99.90
26037;DHT22;13810;48.376;10.944;2022-08-19T01:30:03;18.70;99.90
26037;DHT22;13810;48.376;10.944;2022-08-19T01:30:35;18.70;99.90
26037;DHT22;13810;48.376;10.944;2022-08-19T01:31:08;18.70;99.90
26037;DHT22;13810;48.376;10.944;2022-08-19T01:31:41;18.60;99.90
26037;DHT22;13810;48.376;10.944;2022-08-19T01:32:14;18.60;99.90
26037;DHT22;13810;48.376;10.944;2022-08-19T01:32:46;18.60;99.90
26037;DHT22;13810;48.376;10.944;2022-08-19T01:33:16;18.60;99.90
26037;DHT22;13810;48.376;10.944;2022-08-19T01:33:49;18.60;99.90
26037;DHT22;13810;48.376;10.944;2022-08-19T01:34:20;18.60;99.90
26037;DHT22;13810;48.376;10.944;2022-08-19T01:34:50;18.60;99.90
26037;DHT22;13810;48.376;10.944;2022-08-19T01:35:25;18.60;99.90
26037;DHT22;13810;48.376;10.944;2022-08-19T01:36:04;18.60;99.90
26037;DHT22;13810;48.376;10.944;2022-08-19T01:36:45;18.60;99.90
26037;DHT22;13810;48.376;10.944;2022-08-19T01:37:17;18.60;99.90
26037;DHT22;13810;48.376;10.944;2022-08-19T01:37:58;18.70;99.90
26037;DHT22;13810;48.376;10.944;2022-08-19T01:38:29;18.70;99.90
26037;DHT22;13810;48.376;10.944;2022-08-19T01:39:07;18.70;99.90
26037;DHT22;13810;48.376;10.944;2022-08-19T01:39:40;18.60;99.90
26037;DHT22;13810;48.376;10.944;2022-08-19T01:40:11;18.70;99.90
26037;DHT22;13810;48.376;10.944;2022-08-19T01:40:42;18.70;99.90
26037;DHT22;13810;48.376;10.944;2022-08-19T01:41:13;18.70;99.90
26037;DHT22;13810;48.376;10.944;2022-08-19T01:41:43;18.70;99.90
26037;DHT22;13810;48.376;10.944;2022-08-19T01:42:14;18.60;99.90
26037;DHT22;13810;48.376;10.944;2022-08-19T01:42:45;18.60;99.90
26037;DHT22;13810;48.376;10.944;2022-08-19T01:43:15;18.60;99.90
26037;DHT22;13810;48.376;10.944;2022-08-19T01:43:46;18.60;99.90
26037;DHT22;13810;48.376;10.944;2022-08-19T01:44:17;18.60;99.90
26037;DHT22;13810;48.376;10.944;2022-08-19T01:44:50;18.60;99.90
26037;DHT22;13810;48.376;10.944;2022-08-19T01:45:23;18.60;99.90
26037;DHT22;13810;48.376;10.944;2022-08-19T01:45:54;18.60;99.90
26037;DHT22;13810;48.376;10.944;2022-08-19T01:46:25;18.70;99.90
26037;DHT22;13810;48.376;10.944;2022-08-19T01:46:56;18.60;99.90
26037;DHT22;13810;48.376;10.944;2022-08-19T01:47:26;18.60;99.90
26037;DHT22;13810;48.376;10.944;2022-08-19T01:47:58;18.60;99.90
26037;DHT22;13810;48.376;10.944;2022-08-19T01:48:34;18.70;99.90
26037;DHT22;13810;48.376;10.944;2022-08-19T01:49:06;18.70;99.90
26037;DHT22;13810;48.376;10.944;2022-08-19T01:49:38;18.70;99.90
26037;DHT22;13810;48.376;10.944;2022-08-19T01:50:10;18.60;99.90
26037;DHT22;13810;48.376;10.944;2022-08-19T01:50:40;18.60;99.90
26037;DHT22;13810;48.376;10.944;2022-08-19T01:51:12;18.60;99.90
26037;DHT22;13810;48.376;10.944;2022-08-19T01:51:43;18.60;99.90
26037;DHT22;13810;48.376;10.944;2022-08-19T01:52:14;18.60;99.90
26037;DHT22;13810;48.376;10.944;2022-08-19T01:52:45;18.60;99.90
26037;DHT22;13810;48.376;10.944;2022-08-19T01:53:16;18.60;99.90
26037;DHT22;13810;48.376;10.944;2022-08-19T01:53:50;18.60;99.90
26037;DHT22;13810;48.376;10.944;2022-08-19T01:54:22;18.60;99.90
26037;DHT22;13810;48.376;10.944;2022-08-19T01:54:54;18.60;99.90
26037;DHT22;13810;48.376;10.944;2022-08-19T01:55:24;18.60;99.90
26037;DHT22;13810;48.376;10.944;2022-08-19T01:55:56;18.60;99.90
26037;DHT22;13810;48.376;10.944;2022-08-19T01:56:26;18.60;99.90
26037;DHT22;13810;48.376;10.944;2022-08-19T01:57:06;18.60;99.90
26037;DHT22;13810;48.376;10.944;2022-08-19T01:57:39;18.60;99.90
26037;DHT22;13810;48.376;10.944;2022-08-19T01:58:17;18.60;99.90
26037;DHT22;13810;48.376;10.944;2022-08-19T01:58:53;18.60;99.90
26037;DHT22;13810;48.376;10.944;2022-08-19T01:59:25;18.60;99.90
26037;DHT22;13810;48.376;10.944;2022-08-19T01:59:56;18.60;99.90
26037;DHT22;13810;48.376;10.944;2022-08-19T02:00:30;18.60;99.90
26037;DHT22;13810;48.376;10.944;2022-08-19T02:01:02;18.60;99.90
26037;DHT22;13810;48.376;10.944;2022-08-19T02:01:33;18.50;99.90
26037;DHT22;13810;48.376;10.944;2022-08-19T02:02:05;18.60;99.90
26037;DHT22;13810;48.376;10.944;2022-08-19T02:02:39;18.60;99.90
26037;DHT22;13810;48.376;10.944;2022-08-19T02:03:10;18.50;99.90
26037;DHT22;13810;48.376;10.944;2022-08-19T02:03:41;18.50;99.90
26037;DHT22;13810;48.376;10.944;2022-08-19T02:04:12;18.50;99.90
26037;DHT22;13810;48.376;10.944;2022-08-19T02:04:42;18.50;99.90
26037;DHT22;13810;48.376;10.944;2022-08-19T02:05:13;18.50;99.90
26037;DHT22;13810;48.376;10.944;2022-08-19T02:05:44;18.50;99.90
26037;DHT22;13810;48.376;10.944;2022-08-19T02:06:16;18.50;99.90
26037;DHT22;13810;48.376;10.944;2022-08-19T02:06:47;18.50;99.90
26037;DHT22;13810;48.376;10.944;2022-08-19T02:07:21;18.50;99.90
26037;DHT22;13810;48.376;10.944;2022-08-19T02:07:52;18.50;99.90
26037;DHT22;13810;48.376;10.944;2022-08-19T02:08:22;18.50;99.90
26037;DHT22;13810;48.376;10.944;2022-08-19T02:08:53;18.50;99.90
26037;DHT22;13810;48.376;10.944;2022-08-19T02:09:24;18.50;99.90
26037;DHT22;13810;48.376;10.944;2022-08-19T02:09:54;18.50;99.90
26037;DHT22;13810;48.376;10.944;2022-08-19T02:10:25;18.50;99.90
26037;DHT22;13810;48.376;10.944;2022-08-19T02:10:56;18.50;99.90
26037;DHT22;13810;48.376;10.944;2022-08-19T02:11:31;18.50;99.90
26037;DHT22;13810;48.376;10.944;2022-08-19T02:12:05;18.50;99.90
26037;DHT22;13810;48.376;10.944;2022-08-19T02:12:36;18.50;99.90
26037;DHT22;13810;48.376;10.944;2022-08-19T02:13:06;18.50;99.90
26037;DHT22;13810;48.376;10.944;2022-08-19T02:13:37;18.50;99.90
26037;DHT22;13810;48.376;10.944;2022-08-19T02:14:08;18.50;99.90
26037;DHT22;13810;48.376;10.944;2022-08-19T02:14:38;18.50;99.90
26037;DHT22;13810;48.376;10.944;2022-08-19T02:15:10;18.50;99.90
26037;DHT22;13810;48.376;10.944;2022-08-19T02:15:41;18.50;99.90
26037;DHT22;13810;48.376;10.944;2022-08-19T02:16:11;18.50;99.90
26037;DHT22;13810;48.376;10.944;2022-08-19T02:16:42;18.50;99.90
26037;DHT22;13810;48.376;10.944;2022-08-19T02:17:13;18.50;99.90
26037;DHT22;13810;48.376;10.944;2022-08-19T02:17:44;18.50;99.90
26037;DHT22;13810;48.376;10.944;2022-08-19T02:18:15;18.50;99.90
26037;DHT22;13810;48.376;10.944;2022-08-19T02:18:46;18.50;99.90
26037;DHT22;13810;48.376;10.944;2022-08-19T02:19:18;18.50;99.90
26037;DHT22;13810;48.376;10.944;2022-08-19T02:19:49;18.50;99.90
26037;DHT22;13810;48.376;10.944;2022-08-19T02:20:20;18.50;99.90
26037;DHT22;13810;48.376;10.944;2022-08-19T02:20:51;18.50;99.90
26037;DHT22;13810;48.376;10.944;2022-08-19T02:21:22;18.50;99.90
26037;DHT22;13810;48.376;10.944;2022-08-19T02:21:53;18.50;99.90
26037;DHT22;13810;48.376;10.944;2022-08-19T02:22:25;18.50;99.90
26037;DHT22;13810;48.376;10.944;2022-08-19T02:22:58;18.50;99.90
26037;DHT22;13810;48.376;10.944;2022-08-19T02:23:29;18.50;99.90
26037;DHT22;13810;48.376;10.944;2022-08-19T02:23:59;18.50;99.90
26037;DHT22;13810;48.376;10.944;2022-08-19T02:24:30;18.50;99.90
26037;DHT22;13810;48.376;10.944;2022-08-19T02:25:01;18.50;99.90
26037;DHT22;13810;48.376;10.944;2022-08-19T02:25:32;18.50;99.90
26037;DHT22;13810;48.376;10.944;2022-08-19T02:26:03;18.40;99.90
26037;DHT22;13810;48.376;10.944;2022-08-19T02:26:33;18.40;99.90
26037;DHT22;13810;48.376;10.944;2022-08-19T02:27:04;18.50;99.90
26037;DHT22;13810;48.376;10.944;2022-08-19T02:27:36;18.50;99.90
26037;DHT22;13810;48.376;10.944;2022-08-19T02:28:06;18.50;99.90
26037;DHT22;13810;48.376;10.944;2022-08-19T02:28:38;18.50;99.90
26037;DHT22;13810;48.376;10.944;2022-08-19T02:29:08;18.50;99.90
26037;DHT22;13810;48.376;10.944;2022-08-19T02:29:39;18.50;99.90
26037;DHT22;13810;48.376;10.944;2022-08-19T02:30:15;18.50;99.90
26037;DHT22;13810;48.376;10.944;2022-08-19T02:30:47;18.50;99.90
26037;DHT22;13810;48.376;10.944;2022-08-19T02:31:22;18.40;99.90
26037;DHT22;13810;48.376;10.944;2022-08-19T02:31:52;18.40;99.90
26037;DHT22;13810;48.376;10.944;2022-08-19T02:32:23;18.40;99.90
26037;DHT22;13810;48.376;10.944;2022-08-19T02:32:54;18.40;99.90
26037;DHT22;13810;48.376;10.944;2022-08-19T02:33:24;18.40;99.90
26037;DHT22;13810;48.376;10.944;2022-08-19T02:33:55;18.40;99.90
26037;DHT22;13810;48.376;10.944;2022-08-19T02:34:26;18.40;99.90
26037;DHT22;13810;48.376;10.944;2022-08-19T02:34:57;18.40;99.90
26037;DHT22;13810;48.376;10.944;2022-08-19T02:35:27;18.40;99.90
26037;DHT22;13810;48.376;10.944;2022-08-19T02:35:58;18.40;99.90
26037;DHT22;13810;48.376;10.944;2022-08-19T02:36:29;18.40;99.90
26037;DHT22;13810;48.376;10.944;2022-08-19T02:37:00;18.40;99.90
26037;DHT22;13810;48.376;10.944;2022-08-19T02:37:31;18.40;99.90
26037;DHT22;13810;48.376;10.944;2022-08-19T02:38:22;18.40;99.90
26037;DHT22;13810;48.376;10.944;2022-08-19T02:38:55;18.40;99.90
26037;DHT22;13810;48.376;10.944;2022-08-19T02:39:26;18.40;99.90
26037;DHT22;13810;48.376;10.944;2022-08-19T02:39:57;18.40;99.90
26037;DHT22;13810;48.376;10.944;2022-08-19T02:40:29;18.40;99.90
26037;DHT22;13810;48.376;10.944;2022-08-19T02:41:07;18.40;99.90
26037;DHT22;13810;48.376;10.944;2022-08-19T02:41:41;18.40;99.90
26037;DHT22;13810;48.376;10.944;2022-08-19T02:42:11;18.40;99.90
26037;DHT22;13810;48.376;10.944;2022-08-19T02:42:42;18.40;99.90
26037;DHT22;13810;48.376;10.944;2022-08-19T02:43:13;18.40;99.90
26037;DHT22;13810;48.376;10.944;2022-08-19T02:43:44;18.40;99.90
26037;DHT22;13810;48.376;10.944;2022-08-19T02:44:15;18.40;99.90
26037;DHT22;13810;48.376;10.944;2022-08-19T02:44:45;18.40;99.90
26037;DHT22;13810;48.376;10.944;2022-08-19T02:45:16;18.50;99.90
26037;DHT22;13810;48.376;10.944;2022-08-19T02:45:47;18.40;99.90
26037;DHT22;13810;48.376;10.944;2022-08-19T02:46:23;18.40;99.90
26037;DHT22;13810;48.376;10.944;2022-08-19T02:46:54;18.40;99.90
26037;DHT22;13810;48.376;10.944;2022-08-19T02:47:25;18.40;99.90
26037;DHT22;13810;48.376;10.944;2022-08-19T02:47:56;18.40;99.90
26037;DHT22;13810;48.376;10.944;2022-08-19T02:48:27;18.40;99.90
26037;DHT22;13810;48.376;10.944;2022-08-19T02:49:01;18.40;99.90
26037;DHT22;13810;48.376;10.944;2022-08-19T02:49:32;18.40;99.90
26037;DHT22;13810;48.376;10.944;2022-08-19T02:50:03;18.40;99.90
26037;DHT22;13810;48.376;10.944;2022-08-19T02:50:38;18.40;99.90
26037;DHT22;13810;48.376;10.944;2022-08-19T02:51:16;18.40;99.90
26037;DHT22;13810;48.376;10.944;2022-08-19T02:51:47;18.40;99.90
26037;DHT22;13810;48.376;10.944;2022-08-19T02:52:18;18.40;99.90
26037;DHT22;13810;48.376;10.944;2022-08-19T02:52:48;18.40;99.90
26037;DHT22;13810;48.376;10.944;2022-08-19T02:53:19;18.40;99.90
26037;DHT22;13810;48.376;10.944;2022-08-19T02:53:50;18.40;99.90
26037;DHT22;13810;48.376;10.944;2022-08-19T02:54:20;18.40;99.90
26037;DHT22;13810;48.376;10.944;2022-08-19T02:54:51;18.50;99.90
26037;DHT22;13810;48.376;10.944;2022-08-19T02:55:22;18.40;99.90
26037;DHT22;13810;48.376;10.944;2022-08-19T02:55:53;18.40;99.90
26037;DHT22;13810;48.376;10.944;2022-08-19T02:56:23;18.40;99.90
26037;DHT22;13810;48.376;10.944;2022-08-19T02:56:57;18.40;99.90
26037;DHT22;13810;48.376;10.944;2022-08-19T02:57:29;18.40;99.90
26037;DHT22;13810;48.376;10.944;2022-08-19T02:58:01;18.40;99.90
26037;DHT22;13810;48.376;10.944;2022-08-19T02:58:32;18.40;99.90
26037;DHT22;13810;48.376;10.944;2022-08-19T02:59:03;18.40;99.90
26037;DHT22;13810;48.376;10.944;2022-08-19T02:59:38;18.40;99.90
26037;DHT22;13810;48.376;10.944;2022-08-19T03:00:10;18.40;99.90
26037;DHT22;13810;48.376;10.944;2022-08-19T03:00:46;18.40;99.90
26037;DHT22;13810;48.376;10.944;2022-08-19T03:01:27;18.40;99.90
26037;DHT22;13810;48.376;10.944;2022-08-19T03:01:57;18.40;99.90
26037;DHT22;13810;48.376;10.944;2022-08-19T03:02:28;18.40;99.90
26037;DHT22;13810;48.376;10.944;2022-08-19T03:03:00;18.40;99.90
26037;DHT22;13810;48.376;10.944;2022-08-19T03:03:31;18.40;99.90
26037;DHT22;13810;48.376;10.944;2022-08-19T03:04:05;18.40;99.90
26037;DHT22;13810;48.376;10.944;2022-08-19T03:04:36;18.40;99.90
26037;DHT22;13810;48.376;10.944;2022-08-19T03:05:09;18.40;99.90
26037;DHT22;13810;48.376;10.944;2022-08-19T03:05:40;18.40;99.90
26037;DHT22;13810;48.376;10.944;2022-08-19T03:06:14;18.40;99.90
26037;DHT22;13810;48.376;10.944;2022-08-19T03:06:46;18.40;99.90
26037;DHT22;13810;48.376;10.944;2022-08-19T03:07:17;18.40;99.90
26037;DHT22;13810;48.376;10.944;2022-08-19T03:07:48;18.40;99.90
26037;DHT22;13810;48.376;10.944;2022-08-19T03:08:19;18.40;99.90
26037;DHT22;13810;48.376;10.944;2022-08-19T03:08:50;18.40;99.90
26037;DHT22;13810;48.376;10.944;2022-08-19T03:09:21;18.40;99.90
26037;DHT22;13810;48.376;10.944;2022-08-19T03:09:51;18.40;99.90
26037;DHT22;13810;48.376;10.944;2022-08-19T03:10:22;18.40;99.90
26037;DHT22;13810;48.376;10.944;2022-08-19T03:10:53;18.40;99.90
26037;DHT22;13810;48.376;10.944;2022-08-19T03:11:27;18.40;99.90
26037;DHT22;13810;48.376;10.944;2022-08-19T03:11:58;18.40;99.90
26037;DHT22;13810;48.376;10.944;2022-08-19T03:12:28;18.40;99.90
26037;DHT22;13810;48.376;10.944;2022-08-19T03:12:59;18.40;99.90
26037;DHT22;13810;48.376;10.944;2022-08-19T03:13:30;18.30;99.90
26037;DHT22;13810;48.376;10.944;2022-08-19T03:14:01;18.40;99.90
26037;DHT22;13810;48.376;10.944;2022-08-19T03:14:33;18.40;99.90
26037;DHT22;13810;48.376;10.944;2022-08-19T03:15:06;18.40;99.90
26037;DHT22;13810;48.376;10.944;2022-08-19T03:15:46;18.40;99.90
26037;DHT22;13810;48.376;10.944;2022-08-19T03:16:18;18.40;99.90
26037;DHT22;13810;48.376;10.944;2022-08-19T03:16:51;18.40;99.90
26037;DHT22;13810;48.376;10.944;2022-08-19T03:17:22;18.40;99.90
26037;DHT22;13810;48.376;10.944;2022-08-19T03:17:52;18.40;99.90
26037;DHT22;13810;48.376;10.944;2022-08-19T03:18:23;18.40;99.90
26037;DHT22;13810;48.376;10.944;2022-08-19T03:18:56;18.40;99.90
26037;DHT22;13810;48.376;10.944;2022-08-19T03:19:29;18.40;99.90
26037;DHT22;13810;48.376;10.944;2022-08-19T03:20:03;18.40;99.90
26037;DHT22;13810;48.376;10.944;2022-08-19T03:20:34;18.40;99.90
26037;DHT22;13810;48.376;10.944;2022-08-19T03:21:14;18.40;99.90